Time;durP1;ratioP1;P1;durP2;ratioP2;P2;SDS_P1;SDS_P2;PMS_P1;PMS_P2;Temp;Humidity;BMP_temperature;BMP_pressure;BME280_temperature;BME280_humidity;BME280_pressure;Samples;Min_cycle;Max_cycle;Signal;HPM_P1;HPM_P2
2022/11/07 00:01:49;;;;;;;2.90;2.00;;;10.70;1.00;;;;;;5040704;28;20431;-85
2022/11/07 00:04:28;;;;;;;2.47;2.27;;;10.70;1.00;;;;;;5052977;28;20413;-86
2022/11/07 00:07:01;;;;;;;3.23;2.43;;;10.80;1.00;;;;;;5054546;28;20425;-86
2022/11/07 00:10:00;;;;;;;3.77;2.20;;;10.70;1.00;;;;;;5043007;28;20484;-86
2022/11/07 00:12:26;;;;;;;4.33;2.40;;;10.80;1.00;;;;;;5053442;28;20446;-80
2022/11/07 00:14:52;;;;;;;3.33;2.50;;;10.80;1.00;;;;;;5050977;28;20535;-81
2022/11/07 00:17:18;;;;;;;5.77;2.47;;;10.80;1.00;;;;;;5051766;28;20437;-80
2022/11/07 00:19:44;;;;;;;2.50;2.30;;;10.80;1.00;;;;;;5046859;28;20690;-81
2022/11/07 00:22:13;;;;;;;2.20;2.03;;;10.70;1.00;;;;;;5038812;28;20430;-80
2022/11/07 00:24:42;;;;;;;2.60;2.40;;;10.70;1.00;;;;;;5044263;28;20578;-80
2022/11/07 00:27:08;;;;;;;2.63;2.43;;;10.70;1.00;;;;;;5046644;28;20460;-86
2022/11/07 00:33:06;;;;;;;2.90;2.57;;;10.70;1.00;;;;;;5043823;28;20195;-86
2022/11/07 00:36:24;;;;;;;4.83;2.60;;;10.80;1.00;;;;;;5044392;28;21009;-86
2022/11/07 00:39:18;;;;;;;2.27;2.07;;;10.80;1.00;;;;;;5044462;28;20456;-86
2022/11/07 00:41:49;;;;;;;9.30;2.40;;;10.80;1.00;;;;;;5041599;28;20538;-86
2022/11/07 00:44:54;;;;;;;4.60;2.37;;;10.80;1.00;;;;;;5043567;28;20529;-86
2022/11/07 00:47:37;;;;;;;2.43;2.20;;;10.80;1.00;;;;;;5049302;28;20422;-86
2022/11/07 00:53:43;;;;;;;5.30;2.43;;;10.80;1.00;;;;;;5051958;28;20958;-86
2022/11/07 01:10:01;;;;;;;2.53;2.00;;;10.90;1.00;;;;;;5049919;28;20422;-86
2022/11/07 01:15:48;;;;;;;5.73;2.40;;;11.10;1.00;;;;;;5050518;28;20412;-86
2022/11/07 01:25:36;;;;;;;2.50;2.27;;;11.10;1.00;;;;;;5049191;28;20578;-86
2022/11/07 01:28:13;;;;;;;2.43;2.23;;;11.20;1.00;;;;;;5034357;28;20418;-80
2022/11/07 01:30:49;;;;;;;2.00;1.90;;;11.20;1.00;;;;;;5048809;28;20425;-80
2022/11/07 01:33:31;;;;;;;6.00;2.37;;;11.30;1.00;;;;;;5041498;28;20884;-80
2022/11/07 01:36:18;;;;;;;4.87;1.97;;;11.30;1.00;;;;;;5046875;28;20484;-80
2022/11/07 01:39:30;;;;;;;2.60;2.40;;;11.30;1.00;;;;;;5038340;28;20453;-80
2022/11/07 01:45:27;;;;;;;11.63;3.20;;;11.20;1.00;;;;;;5040489;28;20522;-86
2022/11/07 01:48:43;;;;;;;4.60;2.00;;;11.30;1.00;;;;;;5046717;28;20429;-86
2022/11/07 01:51:36;;;;;;;2.70;2.37;;;11.30;1.00;;;;;;5040853;28;21073;-86
2022/11/07 01:57:35;;;;;;;2.73;2.47;;;11.20;1.00;;;;;;5056512;28;20497;-81
2022/11/07 02:00:10;;;;;;;3.17;2.87;;;11.20;1.00;;;;;;5035562;28;20501;-80
2022/11/07 02:06:13;;;;;;;4.10;2.97;;;11.20;1.00;;;;;;5045612;28;20455;-80
2022/11/07 02:08:45;;;;;;;3.40;2.50;;;11.20;1.00;;;;;;5054165;28;20449;-80
2022/11/07 02:11:12;;;;;;;3.63;2.77;;;11.10;1.00;;;;;;5055964;28;20489;-80
2022/11/07 02:14:13;;;;;;;3.33;2.70;;;11.10;1.00;;;;;;5055373;28;20448;-85
2022/11/07 02:20:48;;;;;;;7.00;2.90;;;10.80;1.00;;;;;;5054617;28;21273;-86
2022/11/07 02:23:53;;;;;;;6.70;3.00;;;10.70;1.00;;;;;;5052807;28;20438;-86
2022/11/07 02:26:57;;;;;;;3.07;2.77;;;10.70;1.00;;;;;;5047153;28;20454;-86
2022/11/07 02:29:25;;;;;;;2.70;2.50;;;10.80;1.00;;;;;;5055169;28;20421;-80
2022/11/07 02:32:06;;;;;;;3.63;2.97;;;10.80;1.00;;;;;;5055033;28;20434;-80
2022/11/07 02:38:18;;;;;;;10.20;3.20;;;10.70;1.00;;;;;;5047472;28;20390;-80
2022/11/07 02:41:30;;;;;;;3.20;2.80;;;10.70;1.00;;;;;;5044910;28;20949;-80
2022/11/07 02:44:10;;;;;;;3.13;2.83;;;10.70;1.00;;;;;;5037496;28;20427;-81
2022/11/07 02:46:37;;;;;;;5.70;2.60;;;10.70;1.00;;;;;;5055030;28;20484;-80
2022/11/07 02:49:07;;;;;;;3.70;3.23;;;10.70;1.00;;;;;;5054079;28;20426;-80
2022/11/07 02:51:54;;;;;;;3.23;2.93;;;10.80;1.00;;;;;;5055075;28;20476;-80
2022/11/07 02:54:20;;;;;;;7.67;2.87;;;10.80;1.00;;;;;;5034374;28;20403;-81
2022/11/07 03:03:39;;;;;;;3.97;3.07;;;10.90;1.00;;;;;;5051731;28;20489;-86
2022/11/07 03:06:30;;;;;;;4.73;3.00;;;10.80;1.00;;;;;;5048722;28;20868;-86
2022/11/07 03:12:19;;;;;;;4.13;2.73;;;10.60;1.00;;;;;;5047695;28;20438;-82
2022/11/07 03:14:55;;;;;;;6.83;2.80;;;10.60;1.00;;;;;;5036978;28;20978;-80
2022/11/07 03:17:20;;;;;;;5.40;3.77;;;10.60;1.00;;;;;;5039621;28;20745;-81
2022/11/07 03:19:48;;;;;;;5.07;3.13;;;10.60;1.00;;;;;;5048715;28;20465;-81
2022/11/07 03:22:19;;;;;;;9.10;3.53;;;10.60;1.00;;;;;;5040915;28;20553;-80
2022/11/07 03:24:49;;;;;;;4.57;3.50;;;10.50;1.00;;;;;;5046331;28;20517;-80
2022/11/07 03:27:21;;;;;;;7.90;3.33;;;10.60;1.00;;;;;;5053124;28;20811;-81
2022/11/07 03:33:09;;;;;;;6.90;3.17;;;10.50;1.00;;;;;;5038192;28;20412;-87
2022/11/07 03:35:36;;;;;;;7.57;3.50;;;10.40;1.00;;;;;;5042274;28;20510;-87
2022/11/07 03:38:02;;;;;;;7.90;3.70;;;10.40;1.00;;;;;;5046909;28;20929;-87
2022/11/07 03:44:12;;;;;;;9.30;4.00;;;10.30;1.00;;;;;;5048462;28;20233;-82
2022/11/07 03:46:43;;;;;;;4.83;3.30;;;10.30;1.00;;;;;;5052896;28;20426;-81
2022/11/07 03:49:19;;;;;;;5.87;3.43;;;10.30;1.00;;;;;;5043903;28;20903;-81
2022/11/07 03:52:01;;;;;;;5.80;4.00;;;10.30;1.00;;;;;;5033052;28;20886;-81
2022/11/07 03:54:37;;;;;;;10.80;3.70;;;10.40;1.00;;;;;;5052722;28;20429;-81
2022/11/07 03:57:07;;;;;;;7.07;4.33;;;10.40;1.00;;;;;;5047548;28;20972;-81
2022/11/07 03:59:43;;;;;;;7.10;3.63;;;10.30;1.00;;;;;;5065120;28;20449;-81
2022/11/07 04:02:13;;;;;;;9.87;3.27;;;10.40;1.00;;;;;;5045495;28;20469;-81
2022/11/07 04:05:06;;;;;;;5.63;3.63;;;10.40;1.00;;;;;;5050928;28;20410;-81
2022/11/07 04:07:49;;;;;;;6.33;4.03;;;10.50;1.00;;;;;;5040512;28;20435;-82
2022/11/07 04:10:14;;;;;;;5.90;3.60;;;10.70;1.00;;;;;;5046606;28;20781;-82
2022/11/07 04:19:36;;;;;;;5.47;3.30;;;10.50;1.00;;;;;;5043150;28;20518;-81
2022/11/07 04:22:07;;;;;;;5.40;3.13;;;10.60;1.00;;;;;;5034201;28;20481;-82
2022/11/07 04:24:43;;;;;;;5.17;3.30;;;10.60;1.00;;;;;;5050694;28;20759;-81
2022/11/07 04:30:17;;;;;;;7.10;3.37;;;10.70;1.00;;;;;;5054322;28;20398;-81
2022/11/07 04:33:12;;;;;;;4.40;3.17;;;10.70;1.00;;;;;;5050719;28;20430;-81
2022/11/07 04:36:06;;;;;;;11.60;5.70;;;10.70;1.00;;;;;;5039977;28;20431;-81
2022/11/07 04:38:43;;;;;;;5.70;3.10;;;10.80;1.00;;;;;;5049297;28;20414;-81
2022/11/07 04:41:27;;;;;;;4.30;3.90;;;10.90;1.00;;;;;;5053421;28;20449;-81
2022/11/07 04:44:30;;;;;;;7.27;3.00;;;11.00;1.00;;;;;;5071929;28;20785;-80
2022/11/07 04:47:36;;;;;;;3.60;2.80;;;11.00;1.00;;;;;;5044984;28;20426;-82
2022/11/07 04:50:11;;;;;;;7.40;2.40;;;11.00;1.00;;;;;;5050286;28;20427;-81
2022/11/07 04:52:37;;;;;;;8.40;2.50;;;11.10;1.00;;;;;;5046623;28;20417;-80
2022/11/07 04:55:24;;;;;;;8.60;3.07;;;11.10;1.00;;;;;;5048094;28;20430;-81
2022/11/07 04:58:01;;;;;;;4.27;2.20;;;11.20;1.00;;;;;;5050767;28;20443;-81
2022/11/07 05:00:31;;;;;;;5.23;2.20;;;11.30;1.00;;;;;;5047147;28;20983;-82
2022/11/07 05:02:56;;;;;;;12.80;2.83;;;11.30;1.00;;;;;;5050608;28;20798;-81
2022/11/07 05:05:37;;;;;;;4.10;2.00;;;11.40;1.00;;;;;;5052554;28;20446;-80
2022/11/07 05:08:13;;;;;;;4.17;2.20;;;11.40;1.00;;;;;;5048021;28;20198;-81
2022/11/07 05:11:24;;;;;;;4.97;2.30;;;11.40;1.00;;;;;;5045694;28;20503;-81
2022/11/07 05:13:50;;;;;;;6.50;2.70;;;11.50;1.00;;;;;;5045316;28;20468;-81
2022/11/07 05:16:25;;;;;;;2.77;2.00;;;11.50;1.00;;;;;;5049194;28;20461;-81
2022/11/07 05:19:11;;;;;;;5.17;2.43;;;11.50;1.00;;;;;;5050310;28;20641;-80
2022/11/07 05:21:37;;;;;;;3.93;1.90;;;11.60;1.00;;;;;;5044188;28;20496;-81
2022/11/07 05:24:07;;;;;;;15.83;2.57;;;11.60;1.00;;;;;;5050023;28;20857;-81
2022/11/07 05:26:37;;;;;;;3.00;2.13;;;11.60;1.00;;;;;;5055893;28;20230;-81
2022/11/07 05:29:42;;;;;;;3.93;1.80;;;11.60;1.00;;;;;;5039547;28;20453;-81
2022/11/07 05:32:08;;;;;;;9.63;1.80;;;11.70;1.00;;;;;;5056225;28;20469;-81
2022/11/07 05:34:37;;;;;;;4.07;1.80;;;11.60;1.00;;;;;;5054684;28;20497;-80
2022/11/07 05:37:06;;;;;;;8.03;2.33;;;11.70;1.00;;;;;;5036611;28;20180;-80
2022/11/07 05:40:06;;;;;;;6.33;2.03;;;11.80;1.00;;;;;;5056578;28;20541;-82
2022/11/07 05:42:37;;;;;;;5.50;2.20;;;11.80;1.00;;;;;;5056191;28;20434;-81
2022/11/07 05:45:13;;;;;;;3.77;1.87;;;11.80;1.00;;;;;;5056096;28;20433;-80
2022/11/07 05:48:01;;;;;;;8.43;2.43;;;11.90;1.00;;;;;;5055977;28;20425;-81
2022/11/07 05:50:28;;;;;;;5.30;2.27;;;11.90;1.00;;;;;;5039849;28;20438;-77
2022/11/07 05:52:58;;;;;;;2.40;2.00;;;11.90;1.00;;;;;;5054735;28;20445;-77
2022/11/07 05:55:24;;;;;;;2.43;2.10;;;11.80;1.00;;;;;;5052923;28;20480;-77
2022/11/07 05:58:12;;;;;;;6.13;2.20;;;11.80;1.00;;;;;;5049879;28;20430;-77
2022/11/07 06:00:39;;;;;;;6.53;2.13;;;11.80;1.00;;;;;;5050760;28;20457;-77
2022/11/07 06:03:19;;;;;;;2.90;2.00;;;11.80;1.00;;;;;;5055525;28;20468;-78
2022/11/07 06:05:55;;;;;;;10.43;2.70;;;11.80;1.00;;;;;;5051468;28;20433;-76
2022/11/07 06:08:25;;;;;;;4.70;1.90;;;11.80;1.00;;;;;;5053731;28;20975;-77
2022/11/07 06:10:50;;;;;;;5.37;2.13;;;11.80;1.00;;;;;;5043064;28;20430;-76
2022/11/07 06:13:25;;;;;;;8.83;2.27;;;11.70;1.00;;;;;;5043593;28;20429;-77
2022/11/07 06:15:50;;;;;;;9.60;1.80;;;11.80;1.00;;;;;;5047782;28;20228;-77
2022/11/07 06:18:18;;;;;;;11.63;2.30;;;11.80;1.00;;;;;;5048108;28;20818;-77
2022/11/07 06:20:49;;;;;;;2.93;1.73;;;11.90;1.00;;;;;;5042725;28;20226;-77
2022/11/07 06:23:14;;;;;;;3.17;1.60;;;11.80;1.00;;;;;;5055495;28;20418;-77
2022/11/07 06:25:43;;;;;;;3.43;1.60;;;11.80;1.00;;;;;;5041301;28;20419;-77
2022/11/07 06:28:13;;;;;;;2.47;1.70;;;11.90;1.00;;;;;;5048602;28;20221;-77
2022/11/07 06:30:40;;;;;;;3.83;1.90;;;11.90;1.00;;;;;;5046526;28;20449;-77
2022/11/07 06:33:16;;;;;;;7.23;2.30;;;12.00;1.00;;;;;;5050742;28;20414;-77
2022/11/07 06:35:55;;;;;;;4.70;1.70;;;12.00;1.00;;;;;;5052239;28;20584;-77
2022/11/07 06:38:22;;;;;;;4.80;1.90;;;12.10;1.00;;;;;;5038645;28;20434;-77
2022/11/07 06:40:48;;;;;;;6.50;1.53;;;12.00;1.00;;;;;;5050667;28;20556;-77
2022/11/07 06:43:19;;;;;;;8.43;2.30;;;12.10;1.00;;;;;;5055518;28;20402;-78
2022/11/07 06:45:46;;;;;;;3.27;2.07;;;12.10;1.00;;;;;;5044284;28;20453;-77
2022/11/07 06:48:12;;;;;;;7.10;1.70;;;12.10;1.00;;;;;;5044573;28;20426;-78
2022/11/07 06:50:43;;;;;;;4.00;2.03;;;12.20;1.00;;;;;;5052854;28;20426;-77
2022/11/07 06:53:13;;;;;;;3.20;1.93;;;12.20;1.00;;;;;;5040606;28;20832;-77
2022/11/07 06:55:58;;;;;;;3.33;1.90;;;12.20;1.00;;;;;;5053816;28;21031;-77
2022/11/07 06:58:25;;;;;;;5.93;1.73;;;12.20;1.00;;;;;;5037265;28;20415;-77
2022/11/07 07:00:50;;;;;;;6.63;2.40;;;12.30;1.00;;;;;;5058488;28;20453;-77
2022/11/07 07:03:25;;;;;;;4.57;1.73;;;12.40;1.00;;;;;;5049428;28;20530;-77
2022/11/07 07:06:00;;;;;;;5.17;2.00;;;12.40;1.00;;;;;;5048172;28;20182;-78
2022/11/07 07:08:37;;;;;;;4.03;1.70;;;12.40;1.00;;;;;;5054430;28;20406;-78
2022/11/07 07:11:05;;;;;;;7.43;1.80;;;12.40;1.00;;;;;;5050753;28;20431;-77
2022/11/07 07:13:31;;;;;;;6.43;2.03;;;12.40;1.00;;;;;;5052047;28;20422;-77
2022/11/07 07:15:57;;;;;;;5.03;1.90;;;12.30;1.00;;;;;;5051264;28;20437;-74
2022/11/07 07:18:24;;;;;;;6.90;1.90;;;12.50;1.00;;;;;;5048405;28;20428;-74
2022/11/07 07:21:03;;;;;;;4.37;1.80;;;12.50;1.00;;;;;;5055758;28;20469;-74
2022/11/07 07:23:29;;;;;;;4.73;1.90;;;12.60;1.00;;;;;;5040906;28;20418;-74
2022/11/07 07:25:55;;;;;;;2.43;1.63;;;12.60;1.00;;;;;;5048967;28;20449;-74
2022/11/07 07:28:21;;;;;;;2.13;1.70;;;12.60;1.00;;;;;;5044054;28;20168;-74
2022/11/07 07:30:49;;;;;;;8.10;1.63;;;12.60;1.00;;;;;;5037105;28;20175;-74
2022/11/07 07:33:14;;;;;;;2.10;1.37;;;12.70;1.00;;;;;;5053043;28;20206;-74
2022/11/07 07:35:49;;;;;;;3.23;1.73;;;12.80;1.00;;;;;;5048666;28;20938;-74
2022/11/07 07:38:14;;;;;;;2.73;1.80;;;12.80;1.00;;;;;;5043452;28;20638;-75
2022/11/07 07:40:40;;;;;;;7.10;2.00;;;12.80;1.00;;;;;;5040224;28;20454;-72
2022/11/07 07:43:13;;;;;;;7.07;2.03;;;12.70;1.00;;;;;;5046333;28;20184;-74
2022/11/07 07:49:07;;;;;;;7.97;1.77;;;12.80;1.00;;;;;;5044599;28;20489;-90
2022/11/07 07:51:37;;;;;;;5.00;1.50;;;12.90;1.00;;;;;;5048463;28;20500;-90
2022/11/07 07:54:36;;;;;;;4.33;1.40;;;12.90;1.00;;;;;;5043600;28;20429;-86
2022/11/07 07:57:48;;;;;;;6.30;1.50;;;12.90;1.00;;;;;;5036610;28;20485;-88
2022/11/07 08:00:37;;;;;;;4.90;1.63;;;12.90;1.00;;;;;;5045373;28;20580;-86
2022/11/07 08:03:36;;;;;;;6.87;1.70;;;13.00;1.00;;;;;;5047571;28;20413;-83
2022/11/07 08:06:24;;;;;;;4.93;2.17;;;13.10;1.00;;;;;;5057503;28;20437;-83
2022/11/07 08:09:07;;;;;;;4.80;1.87;;;13.20;1.00;;;;;;5038223;28;20419;-87
2022/11/07 08:12:04;;;;;;;6.33;1.93;;;13.30;1.00;;;;;;5039575;28;20922;-81
2022/11/07 08:14:48;;;;;;;14.97;1.97;;;13.30;1.00;;;;;;5042622;28;20437;-82
2022/11/07 08:17:25;;;;;;;5.80;1.63;;;13.40;1.00;;;;;;5041195;28;20441;-85
2022/11/07 08:19:50;;;;;;;7.73;1.50;;;13.60;1.00;;;;;;5043595;28;20956;-84
2022/11/07 08:22:36;;;;;;;6.10;1.90;;;13.60;1.00;;;;;;5049692;28;20424;-82
2022/11/07 08:25:09;;;;;;;2.30;1.47;;;13.50;1.00;;;;;;5043376;28;20257;-82
2022/11/07 08:28:07;;;;;;;1.53;1.10;;;13.70;1.00;;;;;;5053907;28;20422;-83
2022/11/07 08:30:59;;;;;;;2.73;1.67;;;13.90;1.00;;;;;;5052016;28;20922;-83
2022/11/07 08:33:25;;;;;;;10.23;1.70;;;13.90;1.00;;;;;;5053709;28;20414;-82
2022/11/07 08:36:36;;;;;;;4.80;1.90;;;13.90;1.00;;;;;;5053450;28;20444;-82
2022/11/07 08:39:07;;;;;;;3.30;2.20;;;13.90;1.00;;;;;;5046545;28;20428;-82
2022/11/07 08:41:37;;;;;;;6.13;1.97;;;14.00;1.00;;;;;;5045955;28;20967;-83
2022/11/07 08:44:08;;;;;;;4.67;1.57;;;14.10;1.00;;;;;;5051743;28;20430;-82
2022/11/07 08:46:37;;;;;;;5.10;1.60;;;14.30;1.00;;;;;;5040775;28;20429;-88
2022/11/07 08:49:30;;;;;;;8.17;1.50;;;14.30;1.00;;;;;;5050279;28;20450;-88
2022/11/07 08:51:56;;;;;;;3.10;1.50;;;14.50;1.00;;;;;;5042322;28;20418;-88
2022/11/07 08:58:07;;;;;;;3.83;1.40;;;14.30;1.00;;;;;;5042971;28;20421;-88
2022/11/07 09:01:12;;;;;;;5.17;1.50;;;14.30;1.00;;;;;;5056331;28;20456;-87
2022/11/07 09:03:49;;;;;;;9.13;1.77;;;14.30;1.00;;;;;;5056965;28;20411;-82
2022/11/07 09:06:31;;;;;;;4.20;1.40;;;14.30;1.00;;;;;;5042852;28;20837;-82
2022/11/07 09:09:08;;;;;;;6.93;1.60;;;14.40;1.00;;;;;;5039242;28;20439;-82
2022/11/07 09:11:37;;;;;;;5.30;1.63;;;14.60;1.00;;;;;;5047913;28;20762;-82
2022/11/07 09:14:03;;;;;;;7.97;1.63;;;14.80;1.00;;;;;;5054910;28;20928;-82
2022/11/07 09:16:30;;;;;;;2.50;1.23;;;14.70;1.00;;;;;;5039624;28;20414;-84
2022/11/07 09:19:07;;;;;;;2.70;1.20;;;14.80;1.00;;;;;;5056734;28;20449;-81
2022/11/07 09:21:44;;;;;;;6.13;1.40;;;14.90;1.00;;;;;;5037098;28;20398;-82
2022/11/07 09:24:13;;;;;;;2.70;1.30;;;14.80;1.00;;;;;;5053597;28;20927;-82
2022/11/07 09:26:55;;;;;;;6.20;1.70;;;14.60;1.00;;;;;;5056347;28;20402;-82
2022/11/07 09:29:37;;;;;;;10.13;1.67;;;14.50;1.00;;;;;;5047321;28;20388;-82
2022/11/07 09:32:19;;;;;;;3.63;1.53;;;14.50;1.00;;;;;;5056892;28;20429;-82
2022/11/07 09:35:25;;;;;;;6.93;1.47;;;14.60;1.00;;;;;;5055278;28;20550;-81
2022/11/07 09:38:01;;;;;;;5.63;1.73;;;14.80;1.00;;;;;;5056792;28;20406;-81
2022/11/07 09:40:50;;;;;;;5.60;1.73;;;14.90;1.00;;;;;;5048906;28;20556;-82
2022/11/07 09:50:10;;;;;;;10.23;1.60;;;14.60;1.00;;;;;;5049889;28;20799;-88
2022/11/07 09:53:16;;;;;;;6.40;1.70;;;14.70;1.00;;;;;;5042786;28;20438;-88
2022/11/07 09:59:07;;;;;;;6.50;1.70;;;14.90;1.00;;;;;;4960984;28;20394;-88
2022/11/07 10:02:02;;;;;;;6.93;1.87;;;14.90;1.00;;;;;;4976302;28;20524;-87
2022/11/07 10:04:28;;;;;;;5.90;1.20;;;15.00;1.00;;;;;;4974436;28;20430;-81
2022/11/07 10:07:01;;;;;;;7.07;1.70;;;14.90;1.00;;;;;;4974948;28;20844;-81
2022/11/07 10:09:47;;;;;;;8.60;1.90;;;15.10;1.00;;;;;;4975149;28;20434;-81
2022/11/07 10:12:42;;;;;;;4.40;2.13;;;15.10;1.00;;;;;;4975191;28;20767;-81
2022/11/07 10:15:48;;;;;;;5.70;1.90;;;15.20;1.00;;;;;;4974411;28;21007;-82
2022/11/07 10:18:56;;;;;;;3.30;1.53;;;15.30;1.00;;;;;;4966117;28;20419;-82
2022/11/07 10:25:04;;;;;;;6.97;1.60;;;15.30;1.00;;;;;;4910462;29;20927;-81
2022/11/07 10:27:38;;;;;;;17.20;1.70;;;15.20;1.00;;;;;;4917589;29;20528;-81
2022/11/07 10:30:43;;;;;;;9.23;1.40;;;15.40;1.00;;;;;;4954871;28;20428;-81
2022/11/07 10:33:40;;;;;;;6.83;1.70;;;15.10;1.00;;;;;;4975010;28;20422;-81
2022/11/07 10:36:16;;;;;;;9.37;1.50;;;15.00;1.00;;;;;;4979525;28;20400;-81
2022/11/07 10:38:43;;;;;;;16.67;1.53;;;15.20;1.00;;;;;;4974292;28;20815;-81
2022/11/07 10:41:15;;;;;;;13.50;1.53;;;15.20;1.00;;;;;;4957458;28;20440;-80
2022/11/07 10:43:57;;;;;;;10.53;1.60;;;15.10;1.00;;;;;;4973352;28;20412;-81
2022/11/07 10:46:49;;;;;;;8.63;1.83;;;15.10;1.00;;;;;;4970495;28;20520;-81
2022/11/07 10:53:08;;;;;;;11.53;2.30;;;14.80;1.00;;;;;;4975245;28;20461;-88
2022/11/07 10:55:48;;;;;;;7.33;1.40;;;14.80;1.00;;;;;;4982090;28;20437;-89
2022/11/07 10:58:42;;;;;;;4.07;1.40;;;14.70;1.00;;;;;;5030917;28;20403;-89
2022/11/07 11:04:31;;;;;;;7.13;1.37;;;14.50;1.00;;;;;;5046936;28;20917;-88
2022/11/07 11:11:07;;;;;;;7.00;1.33;;;14.60;1.00;;;;;;5053435;28;20422;-89
2022/11/07 11:14:19;;;;;;;4.07;1.57;;;14.90;1.00;;;;;;5040627;28;20393;-89
2022/11/07 11:17:27;;;;;;;3.27;1.00;;;15.10;1.00;;;;;;5040879;28;20404;-89
2022/11/07 11:23:22;;;;;;;9.40;1.50;;;15.50;1.00;;;;;;5052354;28;20421;-88
2022/11/07 11:26:06;;;;;;;6.13;1.50;;;15.70;1.00;;;;;;5054011;28;20420;-89
2022/11/07 11:32:13;;;;;;;6.10;1.30;;;16.00;1.00;;;;;;5043282;28;20379;-88
2022/11/07 11:38:25;;;;;;;8.40;2.10;;;16.20;1.00;;;;;;5050107;28;20452;-88
2022/11/07 11:41:45;;;;;;;3.03;1.20;;;16.20;1.00;;;;;;5051371;28;20459;-87
2022/11/07 11:45:01;;;;;;;4.60;1.63;;;16.40;1.00;;;;;;4988525;28;20445;-88
2022/11/07 11:47:38;;;;;;;3.80;1.30;;;16.50;1.00;;;;;;4977368;28;20464;-88
2022/11/07 11:50:14;;;;;;;4.30;1.27;;;16.60;1.00;;;;;;4977235;28;20403;-81
2022/11/07 11:52:49;;;;;;;7.23;1.53;;;16.70;1.00;;;;;;4984782;28;20454;-81
2022/11/07 11:55:22;;;;;;;3.90;1.53;;;16.40;1.00;;;;;;4986059;28;20403;-81
2022/11/07 11:58:16;;;;;;;3.30;1.30;;;16.50;1.00;;;;;;4983386;28;20432;-81
2022/11/07 12:01:22;;;;;;;3.43;1.10;;;16.50;1.00;;;;;;4985240;28;20439;-80
2022/11/07 12:04:00;;;;;;;8.63;2.03;;;16.40;1.00;;;;;;4979451;28;20430;-80
2022/11/07 12:07:01;;;;;;;5.17;1.53;;;16.50;1.00;;;;;;4992338;28;20489;-80
2022/11/07 12:09:49;;;;;;;6.53;1.60;;;16.30;1.00;;;;;;4982646;28;20401;-80
2022/11/07 12:12:47;;;;;;;7.67;1.70;;;16.30;1.00;;;;;;4981145;28;20403;-80
2022/11/07 12:15:34;;;;;;;9.87;1.90;;;16.20;1.00;;;;;;4934484;29;20533;-80
2022/11/07 12:18:25;;;;;;;2.50;1.47;;;16.20;1.00;;;;;;4934503;29;20412;-80
2022/11/07 12:21:36;;;;;;;7.47;1.53;;;16.10;1.00;;;;;;4959014;28;20476;-81
2022/11/07 12:24:28;;;;;;;4.87;1.50;;;15.90;1.00;;;;;;4973028;28;20392;-80
2022/11/07 12:27:14;;;;;;;4.03;1.50;;;16.00;1.00;;;;;;4968863;28;20435;-80
2022/11/07 12:30:04;;;;;;;13.07;1.90;;;15.90;1.00;;;;;;4970280;28;20495;-80
2022/11/07 12:32:55;;;;;;;5.03;1.20;;;15.90;1.00;;;;;;4954249;28;20505;-80
2022/11/07 12:35:47;;;;;;;6.10;1.60;;;16.00;1.00;;;;;;4966576;28;20440;-80
2022/11/07 12:38:35;;;;;;;6.43;1.40;;;16.10;1.00;;;;;;4968184;28;20422;-80
2022/11/07 12:41:26;;;;;;;4.90;1.60;;;16.00;1.00;;;;;;4956327;28;20440;-80
2022/11/07 12:44:31;;;;;;;7.97;1.53;;;16.00;1.00;;;;;;4969628;28;20485;-80
2022/11/07 12:47:34;;;;;;;8.80;2.00;;;15.90;1.00;;;;;;4959689;28;20858;-79
2022/11/07 12:50:36;;;;;;;4.90;1.57;;;15.90;1.00;;;;;;4969663;28;20969;-87
2022/11/07 12:56:31;;;;;;;11.17;1.70;;;15.80;1.00;;;;;;5053760;28;20445;-89
2022/11/07 12:58:59;;;;;;;5.40;1.30;;;15.80;1.00;;;;;;5049760;28;21113;-88
2022/11/07 13:01:43;;;;;;;7.60;1.10;;;15.60;1.00;;;;;;5053665;28;20549;-88
2022/11/07 13:04:38;;;;;;;6.90;1.43;;;15.70;1.00;;;;;;5047576;28;20421;-88
2022/11/07 13:07:25;;;;;;;10.57;1.60;;;15.60;1.00;;;;;;5061974;28;20412;-80
2022/11/07 13:10:30;;;;;;;5.27;1.20;;;15.60;1.00;;;;;;5049511;28;20432;-80
2022/11/07 13:13:34;;;;;;;5.50;1.50;;;15.60;1.00;;;;;;5044859;28;20927;-80
2022/11/07 13:16:24;;;;;;;7.13;1.50;;;15.60;1.00;;;;;;4969814;28;20433;-81
2022/11/07 13:19:09;;;;;;;6.63;1.30;;;15.70;1.00;;;;;;4968986;28;20400;-80
2022/11/07 13:21:42;;;;;;;3.13;1.50;;;15.60;1.00;;;;;;4980030;28;20530;-78
2022/11/07 13:24:19;;;;;;;4.60;1.50;;;15.70;1.00;;;;;;4973558;28;20419;-82
2022/11/07 13:27:23;;;;;;;3.67;1.43;;;15.70;1.00;;;;;;4972402;28;20404;-83
2022/11/07 13:29:56;;;;;;;6.17;1.47;;;15.60;1.00;;;;;;4976167;28;20477;-83
2022/11/07 13:32:40;;;;;;;7.23;1.50;;;15.40;1.00;;;;;;4984430;28;20407;-82
2022/11/07 13:35:25;;;;;;;9.60;1.37;;;15.30;1.00;;;;;;4971512;28;20465;-83
2022/11/07 13:37:59;;;;;;;9.77;1.50;;;15.40;1.00;;;;;;4973557;28;20511;-78
2022/11/07 13:40:36;;;;;;;10.53;1.30;;;15.40;1.00;;;;;;4975605;28;20467;-77
2022/11/07 13:43:09;;;;;;;6.23;1.80;;;15.50;1.00;;;;;;4975598;28;20519;-77
2022/11/07 13:46:02;;;;;;;5.63;1.33;;;15.50;1.00;;;;;;4974178;28;20480;-79
2022/11/07 13:48:43;;;;;;;7.60;1.77;;;15.60;1.00;;;;;;4977887;28;20412;-75
2022/11/07 13:51:17;;;;;;;5.30;1.63;;;15.60;1.00;;;;;;4964945;28;20482;-81
2022/11/07 13:53:52;;;;;;;5.67;1.60;;;15.60;1.00;;;;;;5033842;28;20433;-78
2022/11/07 13:56:53;;;;;;;4.83;1.50;;;15.70;1.00;;;;;;5044776;28;20481;-79
2022/11/07 13:59:46;;;;;;;6.90;1.60;;;15.50;1.00;;;;;;4988517;28;20456;-75
2022/11/07 14:02:25;;;;;;;7.23;1.60;;;15.40;1.00;;;;;;4993757;28;20407;-77
2022/11/07 14:05:07;;;;;;;8.20;1.20;;;15.30;1.00;;;;;;4991346;28;20445;-75
2022/11/07 14:07:36;;;;;;;7.90;2.27;;;15.20;1.00;;;;;;4994010;28;20420;-75
2022/11/07 14:10:04;;;;;;;6.63;1.90;;;15.20;1.00;;;;;;4990727;28;20432;-76
2022/11/07 14:12:35;;;;;;;10.27;2.53;;;15.20;1.00;;;;;;4983892;28;20430;-75
2022/11/07 14:15:01;;;;;;;6.47;2.10;;;15.20;1.00;;;;;;4979710;28;20447;-77
2022/11/07 14:17:35;;;;;;;14.53;1.80;;;15.10;1.00;;;;;;4986386;28;20421;-76
2022/11/07 14:20:18;;;;;;;8.30;1.70;;;15.10;1.00;;;;;;4967212;28;20491;-75
2022/11/07 14:23:11;;;;;;;6.07;1.80;;;15.10;1.00;;;;;;4993442;28;20394;-77
2022/11/07 14:25:37;;;;;;;6.97;1.60;;;15.20;1.00;;;;;;4990301;28;20444;-77
2022/11/07 14:28:13;;;;;;;8.60;1.90;;;15.30;1.00;;;;;;4968674;28;20968;-77
2022/11/07 14:30:49;;;;;;;10.57;2.10;;;15.30;1.00;;;;;;4994581;28;20288;-76
2022/11/07 14:33:21;;;;;;;5.63;1.50;;;15.30;1.00;;;;;;4994673;28;20400;-78
2022/11/07 14:35:49;;;;;;;8.23;1.73;;;15.20;1.00;;;;;;5029814;28;20426;-76
2022/11/07 14:38:24;;;;;;;4.70;1.50;;;15.30;1.00;;;;;;5050555;28;21097;-76
2022/11/07 14:40:54;;;;;;;8.77;1.90;;;15.30;1.00;;;;;;5049250;28;20472;-76
2022/11/07 14:43:23;;;;;;;5.37;1.30;;;15.30;1.00;;;;;;5034648;28;20390;-75
2022/11/07 14:45:54;;;;;;;9.73;1.80;;;15.30;1.00;;;;;;5035677;28;20412;-76
2022/11/07 14:48:27;;;;;;;5.33;1.30;;;15.20;1.00;;;;;;5038450;28;20493;-76
2022/11/07 14:50:54;;;;;;;3.40;1.60;;;15.20;1.00;;;;;;5055143;28;20441;-76
2022/11/07 14:53:33;;;;;;;10.13;1.67;;;15.20;1.00;;;;;;5042441;28;20868;-76
2022/11/07 14:56:06;;;;;;;8.13;1.60;;;15.10;1.00;;;;;;5043558;28;20410;-76
2022/11/07 14:58:32;;;;;;;7.80;2.13;;;15.20;1.00;;;;;;5054952;28;20408;-76
2022/11/07 15:01:12;;;;;;;3.10;1.70;;;15.00;1.00;;;;;;5046020;28;20429;-77
2022/11/07 15:03:49;;;;;;;5.97;1.80;;;15.00;1.00;;;;;;5049177;28;20189;-76
2022/11/07 15:06:27;;;;;;;7.97;1.30;;;15.00;1.00;;;;;;5056900;28;20762;-76
2022/11/07 15:09:05;;;;;;;5.90;1.60;;;15.00;1.00;;;;;;5058949;28;20465;-78
2022/11/07 15:11:36;;;;;;;8.83;1.23;;;15.00;1.00;;;;;;5034932;28;20412;-79
2022/11/07 15:14:19;;;;;;;6.63;1.37;;;14.90;1.00;;;;;;5034581;28;20433;-78
2022/11/07 15:17:05;;;;;;;6.23;1.60;;;14.90;1.00;;;;;;5047488;28;20429;-78
2022/11/07 15:19:34;;;;;;;11.17;1.60;;;15.00;1.00;;;;;;5053559;28;20837;-77
2022/11/07 15:22:26;;;;;;;1.87;1.37;;;15.00;1.00;;;;;;5051042;28;20440;-78
2022/11/07 15:24:56;;;;;;;5.73;1.50;;;15.00;1.00;;;;;;5057768;28;20434;-78
2022/11/07 15:27:43;;;;;;;9.83;1.50;;;15.00;1.00;;;;;;5054434;28;20792;-78
2022/11/07 15:30:31;;;;;;;4.83;1.30;;;14.90;1.00;;;;;;5048659;28;20453;-78
2022/11/07 15:33:05;;;;;;;12.60;1.90;;;14.90;1.00;;;;;;5035225;28;20764;-79
2022/11/07 15:35:31;;;;;;;4.07;1.50;;;14.90;1.00;;;;;;5044978;28;20429;-79
2022/11/07 15:38:02;;;;;;;10.40;1.67;;;14.70;1.00;;;;;;5060421;28;20420;-85
2022/11/07 15:40:32;;;;;;;5.00;1.80;;;14.60;1.00;;;;;;5052993;28;20206;-84
2022/11/07 15:43:02;;;;;;;4.37;1.50;;;14.60;1.00;;;;;;5054027;28;21895;-82
2022/11/07 15:46:04;;;;;;;15.53;1.73;;;14.50;1.00;;;;;;5054517;28;20845;-87
2022/11/07 15:48:50;;;;;;;9.93;1.90;;;14.50;1.00;;;;;;5040873;28;20434;-84
2022/11/07 15:51:15;;;;;;;9.90;1.43;;;14.40;1.00;;;;;;5051729;28;20454;-85
2022/11/07 15:53:44;;;;;;;5.20;1.47;;;14.30;1.00;;;;;;5054165;28;20761;-84
2022/11/07 15:57:01;;;;;;;7.77;1.53;;;14.40;1.00;;;;;;5054312;28;20176;-85
2022/11/07 15:59:38;;;;;;;10.20;1.70;;;14.40;1.00;;;;;;5045304;28;20409;-85
2022/11/07 16:02:15;;;;;;;8.27;1.70;;;14.40;1.00;;;;;;5051412;28;20513;-86